sensor_id;sensor_type;location;lat;lon;timestamp;temperature;humidity
68924;DHT22;55961;52.156;20.942;2023-01-15T00:01:50;4.50;75.90
68924;DHT22;55961;52.156;20.942;2023-01-15T00:04:16;4.50;75.80
68924;DHT22;55961;52.156;20.942;2023-01-15T00:06:42;4.50;75.70
68924;DHT22;55961;52.156;20.942;2023-01-15T00:09:13;4.50;75.60
68924;DHT22;55961;52.156;20.942;2023-01-15T00:11:39;4.50;75.50
68924;DHT22;55961;52.156;20.942;2023-01-15T00:14:05;4.50;75.50
68924;DHT22;55961;52.156;20.942;2023-01-15T00:16:31;4.50;75.30
68924;DHT22;55961;52.156;20.942;2023-01-15T00:18:59;4.50;75.40
68924;DHT22;55961;52.156;20.942;2023-01-15T00:21:27;4.60;75.30
68924;DHT22;55961;52.156;20.942;2023-01-15T00:23:53;4.60;75.40
68924;DHT22;55961;52.156;20.942;2023-01-15T00:26:39;4.50;75.50
68924;DHT22;55961;52.156;20.942;2023-01-15T00:29:25;4.50;75.50
68924;DHT22;55961;52.156;20.942;2023-01-15T00:31:59;4.50;75.50
68924;DHT22;55961;52.156;20.942;2023-01-15T00:34:26;4.50;75.40
68924;DHT22;55961;52.156;20.942;2023-01-15T00:36:53;4.50;75.40
68924;DHT22;55961;52.156;20.942;2023-01-15T00:39:19;4.50;75.20
68924;DHT22;55961;52.156;20.942;2023-01-15T00:41:45;4.50;75.40
68924;DHT22;55961;52.156;20.942;2023-01-15T00:44:11;4.50;74.90
68924;DHT22;55961;52.156;20.942;2023-01-15T00:46:37;4.50;74.80
68924;DHT22;55961;52.156;20.942;2023-01-15T00:49:04;4.50;74.90
68924;DHT22;55961;52.156;20.942;2023-01-15T00:51:30;4.50;75.10
68924;DHT22;55961;52.156;20.942;2023-01-15T00:53:57;4.50;75.20
68924;DHT22;55961;52.156;20.942;2023-01-15T00:56:23;4.50;75.30
68924;DHT22;55961;52.156;20.942;2023-01-15T00:58:49;4.50;75.20
68924;DHT22;55961;52.156;20.942;2023-01-15T01:01:15;4.40;75.10
68924;DHT22;55961;52.156;20.942;2023-01-15T01:03:41;4.40;75.20
68924;DHT22;55961;52.156;20.942;2023-01-15T01:06:07;4.40;75.40
68924;DHT22;55961;52.156;20.942;2023-01-15T01:08:35;4.40;75.50
68924;DHT22;55961;52.156;20.942;2023-01-15T01:11:05;4.40;75.60
68924;DHT22;55961;52.156;20.942;2023-01-15T01:13:32;4.30;75.60
68924;DHT22;55961;52.156;20.942;2023-01-15T01:15:59;4.30;75.50
68924;DHT22;55961;52.156;20.942;2023-01-15T01:18:25;4.30;75.50
68924;DHT22;55961;52.156;20.942;2023-01-15T01:20:51;4.30;75.50
68924;DHT22;55961;52.156;20.942;2023-01-15T01:23:17;4.20;75.60
68924;DHT22;55961;52.156;20.942;2023-01-15T01:25:43;4.20;75.50
68924;DHT22;55961;52.156;20.942;2023-01-15T01:28:09;4.20;75.50
68924;DHT22;55961;52.156;20.942;2023-01-15T01:30:37;4.20;75.60
68924;DHT22;55961;52.156;20.942;2023-01-15T01:33:03;4.20;75.70
68924;DHT22;55961;52.156;20.942;2023-01-15T01:35:30;4.20;75.70
68924;DHT22;55961;52.156;20.942;2023-01-15T01:37:56;4.20;75.50
68924;DHT22;55961;52.156;20.942;2023-01-15T01:40:22;4.10;75.60
68924;DHT22;55961;52.156;20.942;2023-01-15T01:42:48;4.10;75.70
68924;DHT22;55961;52.156;20.942;2023-01-15T01:45:31;4.20;75.60
68924;DHT22;55961;52.156;20.942;2023-01-15T01:48:03;4.10;75.70
68924;DHT22;55961;52.156;20.942;2023-01-15T01:50:31;4.10;75.70
68924;DHT22;55961;52.156;20.942;2023-01-15T01:53:05;4.10;75.70
68924;DHT22;55961;52.156;20.942;2023-01-15T01:55:33;4.10;75.80
68924;DHT22;55961;52.156;20.942;2023-01-15T01:58:01;4.00;75.80
68924;DHT22;55961;52.156;20.942;2023-01-15T02:00:29;4.00;75.90
68924;DHT22;55961;52.156;20.942;2023-01-15T02:02:56;4.00;75.90
68924;DHT22;55961;52.156;20.942;2023-01-15T02:05:28;4.00;75.80
68924;DHT22;55961;52.156;20.942;2023-01-15T02:07:55;4.00;75.70
68924;DHT22;55961;52.156;20.942;2023-01-15T02:10:21;3.90;75.60
68924;DHT22;55961;52.156;20.942;2023-01-15T02:15:39;3.90;75.90
68924;DHT22;55961;52.156;20.942;2023-01-15T02:18:24;3.90;75.80
68924;DHT22;55961;52.156;20.942;2023-01-15T02:32:38;3.80;75.50
68924;DHT22;55961;52.156;20.942;2023-01-15T02:35:22;3.80;75.50
68924;DHT22;55961;52.156;20.942;2023-01-15T02:37:53;3.80;75.30
68924;DHT22;55961;52.156;20.942;2023-01-15T02:40:21;3.80;75.30
68924;DHT22;55961;52.156;20.942;2023-01-15T02:42:48;3.80;75.40
68924;DHT22;55961;52.156;20.942;2023-01-15T02:45:22;3.80;75.40
68924;DHT22;55961;52.156;20.942;2023-01-15T02:47:56;3.80;75.40
68924;DHT22;55961;52.156;20.942;2023-01-15T02:50:30;3.80;75.60
68924;DHT22;55961;52.156;20.942;2023-01-15T02:53:00;3.80;75.50
68924;DHT22;55961;52.156;20.942;2023-01-15T02:55:35;3.80;75.30
68924;DHT22;55961;52.156;20.942;2023-01-15T02:58:05;3.80;75.30
68924;DHT22;55961;52.156;20.942;2023-01-15T03:00:36;3.80;75.20
68924;DHT22;55961;52.156;20.942;2023-01-15T03:03:11;3.80;75.10
68924;DHT22;55961;52.156;20.942;2023-01-15T03:05:46;3.80;75.20
68924;DHT22;55961;52.156;20.942;2023-01-15T03:08:14;3.80;75.40
68924;DHT22;55961;52.156;20.942;2023-01-15T03:13:20;3.80;75.40
68924;DHT22;55961;52.156;20.942;2023-01-15T03:16:25;3.80;75.60
68924;DHT22;55961;52.156;20.942;2023-01-15T03:24:10;3.80;75.40
68924;DHT22;55961;52.156;20.942;2023-01-15T03:26:36;3.80;75.40
68924;DHT22;55961;52.156;20.942;2023-01-15T03:29:05;3.80;75.50
68924;DHT22;55961;52.156;20.942;2023-01-15T03:31:33;3.80;75.60
68924;DHT22;55961;52.156;20.942;2023-01-15T03:33:59;3.80;75.40
68924;DHT22;55961;52.156;20.942;2023-01-15T03:36:26;3.80;75.50
68924;DHT22;55961;52.156;20.942;2023-01-15T03:38:52;3.80;75.50
68924;DHT22;55961;52.156;20.942;2023-01-15T03:41:35;3.80;75.40
68924;DHT22;55961;52.156;20.942;2023-01-15T03:49:55;3.80;75.40
68924;DHT22;55961;52.156;20.942;2023-01-15T03:52:45;3.70;75.30
68924;DHT22;55961;52.156;20.942;2023-01-15T03:58:01;3.80;75.20
68924;DHT22;55961;52.156;20.942;2023-01-15T04:00:35;3.80;75.30
68924;DHT22;55961;52.156;20.942;2023-01-15T04:03:04;3.80;75.40
68924;DHT22;55961;52.156;20.942;2023-01-15T04:05:32;3.70;75.40
68924;DHT22;55961;52.156;20.942;2023-01-15T04:08:00;3.80;75.50
68924;DHT22;55961;52.156;20.942;2023-01-15T04:10:26;3.70;75.20
68924;DHT22;55961;52.156;20.942;2023-01-15T04:12:52;3.80;75.20
68924;DHT22;55961;52.156;20.942;2023-01-15T04:15:18;3.80;75.40
68924;DHT22;55961;52.156;20.942;2023-01-15T04:17:44;3.80;75.40
68924;DHT22;55961;52.156;20.942;2023-01-15T04:20:10;3.80;75.20
68924;DHT22;55961;52.156;20.942;2023-01-15T04:22:37;3.80;75.30
68924;DHT22;55961;52.156;20.942;2023-01-15T04:25:04;3.80;75.30
68924;DHT22;55961;52.156;20.942;2023-01-15T04:27:31;3.80;75.30
68924;DHT22;55961;52.156;20.942;2023-01-15T04:29:57;3.80;75.20
68924;DHT22;55961;52.156;20.942;2023-01-15T04:32:23;3.80;75.30
68924;DHT22;55961;52.156;20.942;2023-01-15T04:34:49;3.80;75.10
68924;DHT22;55961;52.156;20.942;2023-01-15T04:37:16;3.80;74.90
68924;DHT22;55961;52.156;20.942;2023-01-15T04:39:42;3.80;74.90
68924;DHT22;55961;52.156;20.942;2023-01-15T04:42:12;3.80;74.60
68924;DHT22;55961;52.156;20.942;2023-01-15T04:44:57;3.80;74.80
68924;DHT22;55961;52.156;20.942;2023-01-15T04:47:23;3.80;74.70
68924;DHT22;55961;52.156;20.942;2023-01-15T04:49:49;3.80;74.50
68924;DHT22;55961;52.156;20.942;2023-01-15T04:52:15;3.80;74.20
68924;DHT22;55961;52.156;20.942;2023-01-15T04:54:41;3.90;74.10
68924;DHT22;55961;52.156;20.942;2023-01-15T04:57:07;3.90;74.00
68924;DHT22;55961;52.156;20.942;2023-01-15T04:59:33;3.90;73.90
68924;DHT22;55961;52.156;20.942;2023-01-15T05:01:59;3.90;73.80
68924;DHT22;55961;52.156;20.942;2023-01-15T05:04:25;3.90;73.50
68924;DHT22;55961;52.156;20.942;2023-01-15T05:06:51;4.00;73.50
68924;DHT22;55961;52.156;20.942;2023-01-15T05:09:17;4.00;73.10
68924;DHT22;55961;52.156;20.942;2023-01-15T05:11:43;4.00;73.10
68924;DHT22;55961;52.156;20.942;2023-01-15T05:14:09;4.10;72.90
68924;DHT22;55961;52.156;20.942;2023-01-15T05:16:35;4.10;72.70
68924;DHT22;55961;52.156;20.942;2023-01-15T05:19:04;4.10;72.60
68924;DHT22;55961;52.156;20.942;2023-01-15T05:21:35;4.10;72.40
68924;DHT22;55961;52.156;20.942;2023-01-15T05:24:03;4.20;72.40
68924;DHT22;55961;52.156;20.942;2023-01-15T05:26:31;4.20;72.10
68924;DHT22;55961;52.156;20.942;2023-01-15T05:28:58;4.20;71.90
68924;DHT22;55961;52.156;20.942;2023-01-15T05:31:25;4.20;71.90
68924;DHT22;55961;52.156;20.942;2023-01-15T05:33:53;4.20;71.70
68924;DHT22;55961;52.156;20.942;2023-01-15T05:36:21;4.20;71.60
68924;DHT22;55961;52.156;20.942;2023-01-15T05:38:47;4.30;71.60
68924;DHT22;55961;52.156;20.942;2023-01-15T05:41:16;4.30;71.50
68924;DHT22;55961;52.156;20.942;2023-01-15T05:44:06;4.30;71.30
68924;DHT22;55961;52.156;20.942;2023-01-15T05:46:34;4.30;71.50
68924;DHT22;55961;52.156;20.942;2023-01-15T05:49:01;4.40;71.20
68924;DHT22;55961;52.156;20.942;2023-01-15T05:51:27;4.40;71.20
68924;DHT22;55961;52.156;20.942;2023-01-15T05:53:55;4.40;71.30
68924;DHT22;55961;52.156;20.942;2023-01-15T05:56:21;4.40;71.20
68924;DHT22;55961;52.156;20.942;2023-01-15T05:58:47;4.40;71.00
68924;DHT22;55961;52.156;20.942;2023-01-15T06:01:13;4.40;71.00
68924;DHT22;55961;52.156;20.942;2023-01-15T06:03:39;4.50;71.10
68924;DHT22;55961;52.156;20.942;2023-01-15T06:06:09;4.50;71.00
68924;DHT22;55961;52.156;20.942;2023-01-15T06:08:35;4.50;70.90
68924;DHT22;55961;52.156;20.942;2023-01-15T06:11:01;4.50;70.90
68924;DHT22;55961;52.156;20.942;2023-01-15T06:13:27;4.50;71.20
68924;DHT22;55961;52.156;20.942;2023-01-15T06:15:53;4.50;71.40
68924;DHT22;55961;52.156;20.942;2023-01-15T06:18:21;4.50;71.60
68924;DHT22;55961;52.156;20.942;2023-01-15T06:20:48;4.50;71.90
68924;DHT22;55961;52.156;20.942;2023-01-15T06:23:16;4.50;71.70
68924;DHT22;55961;52.156;20.942;2023-01-15T06:25:43;4.50;71.80
68924;DHT22;55961;52.156;20.942;2023-01-15T06:28:09;4.50;71.50
68924;DHT22;55961;52.156;20.942;2023-01-15T06:30:38;4.60;71.70
68924;DHT22;55961;52.156;20.942;2023-01-15T06:33:04;4.50;71.30
68924;DHT22;55961;52.156;20.942;2023-01-15T06:35:30;4.60;71.50
68924;DHT22;55961;52.156;20.942;2023-01-15T06:37:56;4.60;71.40
68924;DHT22;55961;52.156;20.942;2023-01-15T06:40:22;4.60;71.40
68924;DHT22;55961;52.156;20.942;2023-01-15T06:42:49;4.60;71.40
68924;DHT22;55961;52.156;20.942;2023-01-15T06:45:38;4.60;71.80
68924;DHT22;55961;52.156;20.942;2023-01-15T06:48:24;4.60;71.50
68924;DHT22;55961;52.156;20.942;2023-01-15T06:50:50;4.60;71.80
68924;DHT22;55961;52.156;20.942;2023-01-15T06:53:16;4.60;72.00
68924;DHT22;55961;52.156;20.942;2023-01-15T06:55:42;4.60;72.50
68924;DHT22;55961;52.156;20.942;2023-01-15T06:58:08;4.60;72.70
68924;DHT22;55961;52.156;20.942;2023-01-15T07:00:34;4.60;73.40
68924;DHT22;55961;52.156;20.942;2023-01-15T07:03:01;4.60;73.30
68924;DHT22;55961;52.156;20.942;2023-01-15T07:05:27;4.60;73.60
68924;DHT22;55961;52.156;20.942;2023-01-15T07:07:53;4.60;74.10
68924;DHT22;55961;52.156;20.942;2023-01-15T07:10:20;4.60;74.60
68924;DHT22;55961;52.156;20.942;2023-01-15T07:12:45;4.60;75.10
68924;DHT22;55961;52.156;20.942;2023-01-15T07:15:11;4.60;74.90
68924;DHT22;55961;52.156;20.942;2023-01-15T07:17:37;4.60;75.20
68924;DHT22;55961;52.156;20.942;2023-01-15T07:20:04;4.50;75.60
68924;DHT22;55961;52.156;20.942;2023-01-15T07:22:30;4.50;76.10
68924;DHT22;55961;52.156;20.942;2023-01-15T07:24:56;4.50;76.40
68924;DHT22;55961;52.156;20.942;2023-01-15T07:27:22;4.50;76.20
68924;DHT22;55961;52.156;20.942;2023-01-15T07:29:49;4.50;76.30
68924;DHT22;55961;52.156;20.942;2023-01-15T07:32:17;4.50;76.80
68924;DHT22;55961;52.156;20.942;2023-01-15T07:34:44;4.50;76.90
68924;DHT22;55961;52.156;20.942;2023-01-15T07:37:10;4.50;77.10
68924;DHT22;55961;52.156;20.942;2023-01-15T07:39:36;4.50;77.50
68924;DHT22;55961;52.156;20.942;2023-01-15T07:42:02;4.50;77.50
68924;DHT22;55961;52.156;20.942;2023-01-15T07:44:47;4.50;77.30
68924;DHT22;55961;52.156;20.942;2023-01-15T07:47:31;4.50;77.90
68924;DHT22;55961;52.156;20.942;2023-01-15T07:50:19;4.50;77.60
68924;DHT22;55961;52.156;20.942;2023-01-15T07:52:46;4.50;77.60
68924;DHT22;55961;52.156;20.942;2023-01-15T07:55:12;4.50;77.80
68924;DHT22;55961;52.156;20.942;2023-01-15T07:57:39;4.50;78.00
68924;DHT22;55961;52.156;20.942;2023-01-15T08:00:12;4.60;77.90
68924;DHT22;55961;52.156;20.942;2023-01-15T08:02:39;4.60;77.90
68924;DHT22;55961;52.156;20.942;2023-01-15T08:05:05;4.70;77.90
68924;DHT22;55961;52.156;20.942;2023-01-15T08:07:38;4.60;78.10
68924;DHT22;55961;52.156;20.942;2023-01-15T08:10:05;4.70;78.30
68924;DHT22;55961;52.156;20.942;2023-01-15T08:12:31;4.70;78.80
68924;DHT22;55961;52.156;20.942;2023-01-15T08:15:16;4.70;78.80
68924;DHT22;55961;52.156;20.942;2023-01-15T08:17:46;4.80;78.90
68924;DHT22;55961;52.156;20.942;2023-01-15T08:20:18;4.80;79.10
68924;DHT22;55961;52.156;20.942;2023-01-15T08:22:44;4.80;78.90
68924;DHT22;55961;52.156;20.942;2023-01-15T08:25:28;4.80;78.90
68924;DHT22;55961;52.156;20.942;2023-01-15T08:27:54;4.90;78.90
68924;DHT22;55961;52.156;20.942;2023-01-15T08:30:22;4.90;78.80
68924;DHT22;55961;52.156;20.942;2023-01-15T08:32:49;4.90;79.10
68924;DHT22;55961;52.156;20.942;2023-01-15T08:35:15;4.90;79.00
68924;DHT22;55961;52.156;20.942;2023-01-15T08:37:41;4.90;79.50
68924;DHT22;55961;52.156;20.942;2023-01-15T08:40:08;5.00;79.10
68924;DHT22;55961;52.156;20.942;2023-01-15T08:42:34;5.00;79.30
68924;DHT22;55961;52.156;20.942;2023-01-15T08:45:00;5.00;79.30
68924;DHT22;55961;52.156;20.942;2023-01-15T08:47:26;5.00;79.20
68924;DHT22;55961;52.156;20.942;2023-01-15T08:49:52;5.10;79.50
68924;DHT22;55961;52.156;20.942;2023-01-15T08:52:19;5.10;79.50
68924;DHT22;55961;52.156;20.942;2023-01-15T08:54:45;5.10;79.50
68924;DHT22;55961;52.156;20.942;2023-01-15T08:57:11;5.10;79.30
68924;DHT22;55961;52.156;20.942;2023-01-15T08:59:38;5.20;79.10
68924;DHT22;55961;52.156;20.942;2023-01-15T09:02:11;5.20;78.70
68924;DHT22;55961;52.156;20.942;2023-01-15T09:04:39;5.30;78.90
68924;DHT22;55961;52.156;20.942;2023-01-15T09:07:06;5.30;79.10
68924;DHT22;55961;52.156;20.942;2023-01-15T09:09:33;5.30;78.90
68924;DHT22;55961;52.156;20.942;2023-01-15T09:11:58;5.30;79.20
68924;DHT22;55961;52.156;20.942;2023-01-15T09:14:24;5.30;79.10
68924;DHT22;55961;52.156;20.942;2023-01-15T09:16:50;5.30;79.30
68924;DHT22;55961;52.156;20.942;2023-01-15T09:19:19;5.30;79.50
68924;DHT22;55961;52.156;20.942;2023-01-15T09:21:44;5.30;79.50
68924;DHT22;55961;52.156;20.942;2023-01-15T09:24:10;5.30;79.70
68924;DHT22;55961;52.156;20.942;2023-01-15T09:26:38;5.30;79.50
68924;DHT22;55961;52.156;20.942;2023-01-15T09:29:06;5.30;79.30
68924;DHT22;55961;52.156;20.942;2023-01-15T09:31:33;5.30;79.60
68924;DHT22;55961;52.156;20.942;2023-01-15T09:33:59;5.30;79.70
68924;DHT22;55961;52.156;20.942;2023-01-15T09:36:30;5.30;80.00
68924;DHT22;55961;52.156;20.942;2023-01-15T09:38:58;5.30;80.00
68924;DHT22;55961;52.156;20.942;2023-01-15T09:41:26;5.30;80.30
68924;DHT22;55961;52.156;20.942;2023-01-15T09:44:38;5.30;80.40
68924;DHT22;55961;52.156;20.942;2023-01-15T09:47:29;5.30;80.50
68924;DHT22;55961;52.156;20.942;2023-01-15T09:50:20;5.30;80.60
68924;DHT22;55961;52.156;20.942;2023-01-15T09:57:45;5.20;81.10
68924;DHT22;55961;52.156;20.942;2023-01-15T10:00:21;5.20;81.30
68924;DHT22;55961;52.156;20.942;2023-01-15T10:05:23;5.20;81.90
68924;DHT22;55961;52.156;20.942;2023-01-15T10:07:58;5.20;82.30
68924;DHT22;55961;52.156;20.942;2023-01-15T10:10:31;5.20;82.30
68924;DHT22;55961;52.156;20.942;2023-01-15T10:13:05;5.20;82.60
68924;DHT22;55961;52.156;20.942;2023-01-15T10:15:45;5.20;82.70
68924;DHT22;55961;52.156;20.942;2023-01-15T10:18:18;5.10;82.90
68924;DHT22;55961;52.156;20.942;2023-01-15T10:25:48;5.20;82.90
68924;DHT22;55961;52.156;20.942;2023-01-15T10:28:25;5.20;83.40
68924;DHT22;55961;52.156;20.942;2023-01-15T10:30:55;5.20;83.60
68924;DHT22;55961;52.156;20.942;2023-01-15T10:34:01;5.20;83.30
68924;DHT22;55961;52.156;20.942;2023-01-15T10:36:40;5.20;83.30
68924;DHT22;55961;52.156;20.942;2023-01-15T10:42:23;5.20;83.80
68924;DHT22;55961;52.156;20.942;2023-01-15T10:47:25;5.30;83.80
68924;DHT22;55961;52.156;20.942;2023-01-15T10:49:53;5.30;84.20
68924;DHT22;55961;52.156;20.942;2023-01-15T10:52:32;5.30;84.00
68924;DHT22;55961;52.156;20.942;2023-01-15T10:55:27;5.30;84.10
68924;DHT22;55961;52.156;20.942;2023-01-15T10:58:11;5.30;84.10
68924;DHT22;55961;52.156;20.942;2023-01-15T11:00:39;5.40;83.90
68924;DHT22;55961;52.156;20.942;2023-01-15T11:03:12;5.40;83.60
68924;DHT22;55961;52.156;20.942;2023-01-15T11:05:41;5.40;83.80
68924;DHT22;55961;52.156;20.942;2023-01-15T11:08:14;5.40;84.10
68924;DHT22;55961;52.156;20.942;2023-01-15T11:10:44;5.40;84.50
68924;DHT22;55961;52.156;20.942;2023-01-15T11:13:21;5.50;84.10
68924;DHT22;55961;52.156;20.942;2023-01-15T11:16:13;5.40;83.80
68924;DHT22;55961;52.156;20.942;2023-01-15T11:19:01;5.40;84.30
68924;DHT22;55961;52.156;20.942;2023-01-15T11:21:52;5.40;84.10
68924;DHT22;55961;52.156;20.942;2023-01-15T11:24:18;5.50;84.30
68924;DHT22;55961;52.156;20.942;2023-01-15T11:26:50;5.40;84.50
68924;DHT22;55961;52.156;20.942;2023-01-15T11:29:30;5.50;84.30
68924;DHT22;55961;52.156;20.942;2023-01-15T11:31:57;5.40;84.40
68924;DHT22;55961;52.156;20.942;2023-01-15T11:34:23;5.40;84.40
68924;DHT22;55961;52.156;20.942;2023-01-15T11:37:03;5.40;84.70
68924;DHT22;55961;52.156;20.942;2023-01-15T11:39:30;5.40;84.60
68924;DHT22;55961;52.156;20.942;2023-01-15T11:42:05;5.40;84.30
68924;DHT22;55961;52.156;20.942;2023-01-15T11:44:55;5.40;84.60
68924;DHT22;55961;52.156;20.942;2023-01-15T11:47:53;5.40;84.50
68924;DHT22;55961;52.156;20.942;2023-01-15T11:50:58;5.40;84.60
68924;DHT22;55961;52.156;20.942;2023-01-15T11:53:28;5.40;84.70
68924;DHT22;55961;52.156;20.942;2023-01-15T11:56:03;5.40;84.80
68924;DHT22;55961;52.156;20.942;2023-01-15T11:58:37;5.40;84.70
68924;DHT22;55961;52.156;20.942;2023-01-15T12:01:04;5.40;84.90
68924;DHT22;55961;52.156;20.942;2023-01-15T12:03:33;5.40;85.10
68924;DHT22;55961;52.156;20.942;2023-01-15T12:06:05;5.40;85.10
68924;DHT22;55961;52.156;20.942;2023-01-15T12:27:52;5.40;85.00
68924;DHT22;55961;52.156;20.942;2023-01-15T12:33:33;5.50;84.50
68924;DHT22;55961;52.156;20.942;2023-01-15T12:36:06;5.50;84.20
68924;DHT22;55961;52.156;20.942;2023-01-15T12:41:11;5.60;83.70
68924;DHT22;55961;52.156;20.942;2023-01-15T12:43:38;5.60;83.50
68924;DHT22;55961;52.156;20.942;2023-01-15T12:46:25;5.60;83.50
68924;DHT22;55961;52.156;20.942;2023-01-15T12:49:00;5.70;82.00
68924;DHT22;55961;52.156;20.942;2023-01-15T12:51:49;5.70;81.80
68924;DHT22;55961;52.156;20.942;2023-01-15T12:54:22;5.70;81.00
68924;DHT22;55961;52.156;20.942;2023-01-15T12:57:15;5.80;81.10
68924;DHT22;55961;52.156;20.942;2023-01-15T12:59:47;5.90;79.40
68924;DHT22;55961;52.156;20.942;2023-01-15T13:02:39;5.90;79.20
68924;DHT22;55961;52.156;20.942;2023-01-15T13:05:33;6.00;78.80
68924;DHT22;55961;52.156;20.942;2023-01-15T13:08:03;6.00;78.20
68924;DHT22;55961;52.156;20.942;2023-01-15T13:10:31;6.10;77.30
68924;DHT22;55961;52.156;20.942;2023-01-15T13:21:35;6.20;79.50
68924;DHT22;55961;52.156;20.942;2023-01-15T13:32:20;6.10;79.10
68924;DHT22;55961;52.156;20.942;2023-01-15T13:34:52;6.10;79.40
68924;DHT22;55961;52.156;20.942;2023-01-15T13:39:57;6.10;79.50
68924;DHT22;55961;52.156;20.942;2023-01-15T13:42:25;6.10;79.40
68924;DHT22;55961;52.156;20.942;2023-01-15T13:47:30;6.10;78.70
68924;DHT22;55961;52.156;20.942;2023-01-15T13:50:03;6.10;78.20
68924;DHT22;55961;52.156;20.942;2023-01-15T13:52:32;6.10;78.10
68924;DHT22;55961;52.156;20.942;2023-01-15T13:57:39;6.20;78.00
68924;DHT22;55961;52.156;20.942;2023-01-15T14:00:24;6.20;77.90
68924;DHT22;55961;52.156;20.942;2023-01-15T14:02:52;6.20;78.00
68924;DHT22;55961;52.156;20.942;2023-01-15T14:07:48;6.20;77.80
68924;DHT22;55961;52.156;20.942;2023-01-15T14:21:09;6.20;75.80
68924;DHT22;55961;52.156;20.942;2023-01-15T14:27:05;6.30;76.10
68924;DHT22;55961;52.156;20.942;2023-01-15T14:34:57;6.30;75.60
68924;DHT22;55961;52.156;20.942;2023-01-15T14:38:11;6.30;75.90
68924;DHT22;55961;52.156;20.942;2023-01-15T14:40:20;6.30;75.70
68924;DHT22;55961;52.156;20.942;2023-01-15T14:42:50;6.30;75.40
68924;DHT22;55961;52.156;20.942;2023-01-15T14:45:42;6.30;74.00
68924;DHT22;55961;52.156;20.942;2023-01-15T14:48:31;6.30;73.80
68924;DHT22;55961;52.156;20.942;2023-01-15T14:51:12;6.40;72.80
68924;DHT22;55961;52.156;20.942;2023-01-15T14:53:48;6.50;71.70
68924;DHT22;55961;52.156;20.942;2023-01-15T14:56:30;6.50;71.10
68924;DHT22;55961;52.156;20.942;2023-01-15T14:59:19;6.50;71.30
68924;DHT22;55961;52.156;20.942;2023-01-15T15:01:51;6.60;70.70
68924;DHT22;55961;52.156;20.942;2023-01-15T15:07:25;6.70;70.60
68924;DHT22;55961;52.156;20.942;2023-01-15T15:10:12;6.70;70.90
68924;DHT22;55961;52.156;20.942;2023-01-15T15:15:58;6.70;71.90
68924;DHT22;55961;52.156;20.942;2023-01-15T15:18:30;6.70;71.90
68924;DHT22;55961;52.156;20.942;2023-01-15T15:21:30;6.70;72.20
68924;DHT22;55961;52.156;20.942;2023-01-15T15:24:20;6.70;72.40
68924;DHT22;55961;52.156;20.942;2023-01-15T15:26:47;6.70;72.70
68924;DHT22;55961;52.156;20.942;2023-01-15T15:29:17;6.60;73.30
68924;DHT22;55961;52.156;20.942;2023-01-15T15:31:48;6.60;72.70
68924;DHT22;55961;52.156;20.942;2023-01-15T15:34:37;6.60;72.60
68924;DHT22;55961;52.156;20.942;2023-01-15T15:37:13;6.60;71.20
68924;DHT22;55961;52.156;20.942;2023-01-15T15:39:41;6.70;70.30
68924;DHT22;55961;52.156;20.942;2023-01-15T15:42:22;6.80;69.40
68924;DHT22;55961;52.156;20.942;2023-01-15T15:45:19;6.90;69.30
68924;DHT22;55961;52.156;20.942;2023-01-15T15:48:28;7.00;69.50
68924;DHT22;55961;52.156;20.942;2023-01-15T15:53:50;7.10;68.80
68924;DHT22;55961;52.156;20.942;2023-01-15T15:56:16;7.10;69.40
68924;DHT22;55961;52.156;20.942;2023-01-15T15:58:42;7.20;69.20
68924;DHT22;55961;52.156;20.942;2023-01-15T16:01:10;7.20;69.50
68924;DHT22;55961;52.156;20.942;2023-01-15T16:03:45;7.20;69.90
68924;DHT22;55961;52.156;20.942;2023-01-15T16:06:22;7.20;69.30
68924;DHT22;55961;52.156;20.942;2023-01-15T16:08:54;7.30;69.40
68924;DHT22;55961;52.156;20.942;2023-01-15T16:11:23;7.30;69.00
68924;DHT22;55961;52.156;20.942;2023-01-15T16:13:51;7.30;69.00
68924;DHT22;55961;52.156;20.942;2023-01-15T16:16:19;7.30;69.30
68924;DHT22;55961;52.156;20.942;2023-01-15T16:18:50;7.30;69.80
68924;DHT22;55961;52.156;20.942;2023-01-15T16:21:41;7.30;70.20
68924;DHT22;55961;52.156;20.942;2023-01-15T16:24:17;7.30;70.40
68924;DHT22;55961;52.156;20.942;2023-01-15T16:26:59;7.30;70.30
68924;DHT22;55961;52.156;20.942;2023-01-15T16:29:51;7.30;70.90
68924;DHT22;55961;52.156;20.942;2023-01-15T16:32:28;7.20;70.60
68924;DHT22;55961;52.156;20.942;2023-01-15T16:35:06;7.20;71.30
68924;DHT22;55961;52.156;20.942;2023-01-15T16:37:33;7.20;71.00
68924;DHT22;55961;52.156;20.942;2023-01-15T16:40:02;7.20;71.20
68924;DHT22;55961;52.156;20.942;2023-01-15T16:42:33;7.20;71.50
68924;DHT22;55961;52.156;20.942;2023-01-15T16:45:03;7.20;72.10
68924;DHT22;55961;52.156;20.942;2023-01-15T16:47:32;7.10;72.80
68924;DHT22;55961;52.156;20.942;2023-01-15T16:52:49;7.10;74.60
68924;DHT22;55961;52.156;20.942;2023-01-15T16:55:38;7.10;75.40
68924;DHT22;55961;52.156;20.942;2023-01-15T17:00:37;6.90;77.30
68924;DHT22;55961;52.156;20.942;2023-01-15T17:03:24;6.90;77.90
68924;DHT22;55961;52.156;20.942;2023-01-15T17:05:59;6.80;78.80
68924;DHT22;55961;52.156;20.942;2023-01-15T17:08:36;6.80;79.40
68924;DHT22;55961;52.156;20.942;2023-01-15T17:11:14;6.70;80.10
68924;DHT22;55961;52.156;20.942;2023-01-15T17:13:42;6.70;80.60
68924;DHT22;55961;52.156;20.942;2023-01-15T17:18:39;6.60;82.10
68924;DHT22;55961;52.156;20.942;2023-01-15T17:21:06;6.60;82.50
68924;DHT22;55961;52.156;20.942;2023-01-15T17:23:39;6.50;82.90
68924;DHT22;55961;52.156;20.942;2023-01-15T17:26:15;6.50;83.20
68924;DHT22;55961;52.156;20.942;2023-01-15T17:28:41;6.40;83.70
68924;DHT22;55961;52.156;20.942;2023-01-15T17:31:26;6.40;84.00
68924;DHT22;55961;52.156;20.942;2023-01-15T17:33:55;6.40;84.30
68924;DHT22;55961;52.156;20.942;2023-01-15T17:36:21;6.40;84.60
68924;DHT22;55961;52.156;20.942;2023-01-15T17:38:48;6.30;84.70
68924;DHT22;55961;52.156;20.942;2023-01-15T17:41:16;6.30;84.80
68924;DHT22;55961;52.156;20.942;2023-01-15T17:43:42;6.30;85.30
68924;DHT22;55961;52.156;20.942;2023-01-15T17:46:08;6.30;85.40
68924;DHT22;55961;52.156;20.942;2023-01-15T17:48:34;6.20;85.70
68924;DHT22;55961;52.156;20.942;2023-01-15T17:51:01;6.20;85.60
68924;DHT22;55961;52.156;20.942;2023-01-15T17:53:28;6.20;86.10
68924;DHT22;55961;52.156;20.942;2023-01-15T17:55:54;6.20;86.40
68924;DHT22;55961;52.156;20.942;2023-01-15T17:58:40;6.20;86.70
68924;DHT22;55961;52.156;20.942;2023-01-15T18:01:25;6.10;87.00
68924;DHT22;55961;52.156;20.942;2023-01-15T18:04:23;6.10;87.20
68924;DHT22;55961;52.156;20.942;2023-01-15T18:07:09;6.10;87.60
68924;DHT22;55961;52.156;20.942;2023-01-15T18:09:35;6.10;87.90
68924;DHT22;55961;52.156;20.942;2023-01-15T18:12:01;6.10;88.10
68924;DHT22;55961;52.156;20.942;2023-01-15T18:14:27;6.00;88.20
68924;DHT22;55961;52.156;20.942;2023-01-15T18:16:53;6.00;88.40